Woodchoppertown, Pennsylvania
Current Conditions -  °F | °C
As of 8:54 AM on Sunday 25 Jan 2015 (Local Time) from KPTW Reporting Station
Overcast Overcast  
Wind Chill: 33°   Ceiling: 5000
Heat Index: 38°   Visibility: 10mi
Dew Point: 28°   Wind: 7mph
Humidity: 68%   Direction: 260°W
Pressure: 29.77"   Gusts: NA
Location:  40.3481°N, 75.6818°W
Report Text: KPTW 251354Z AUTO 26006KT 10SM FEW034 BKN050 OVC060 03/M02 A2977 RMK AO2 SLP081 T00331022
Loading
Personal Weather Stations






























Interactive Weather Map New forecast layout! Learn more

10-Day Weather Forecast

Advertisements
Track Severe Weather on mobile